Allen, MD

8:26 PM EST on March 03, 2015 (GMT -0500)
Salisbury-Ocean City Wicomico Regional | Change Station
CLOSE
Current Station
Airport
Location: Salisbury,
Elevation: 52 ft
Nearby Weather Stations

Elev 52 ft 38.34 °N, 75.51 °W | Updated 32 minutes ago

Overcast
Overcast
36 °F
Feels Like 31 °F
N
6
Wind Variable Wind from SW

Today
High -- | Low -- °F
--% Chance of Precip.
Yesterday
High -- | Low -- °F
Precip. -- in
6:32 AM 5:57 PM
Waxing Gibbous, 97% visible
Pressure 30.08 in
Visibility 6.0 miles
Clouds Overcast 2100 ft
Windchill 31 °F
Dew Point 32 °F
Humidity 86%
Rainfall 0.10 in
Snow Depth Not available.
UV 0 out of 12
Pollen .60 out of 12
Air Quality Not available.
Flu Activity Not available.
METAR KSBY 040054Z 23005KT 6SM BR OVC021 02/00 A3007 RMK AO2 RAE34UPB29E33 SLP185 P0001 T00220000

More Conditions Fewer Conditions

Pressure 30.08 in
Visibility 6.0 miles
Clouds Overcast 2100 ft
Windchill 31 °F
Dew Point 32 °F
Humidity 86%
Rainfall 0.10 in
Snow Depth Not available.
UV 0 out of 12
Pollen .60 out of 12
Air Quality Not available.
Flu Activity Not available.
METAR KSBY 040054Z 23005KT 6SM BR OVC021 02/00 A3007 RMK AO2 RAE34UPB29E33 SLP185 P0001 T00220000

More Conditions Fewer Conditions

10-Day Weather Forecast

Almanac

Astronomy

Mar. 03, 2015 Rise Set
Actual Time
Civil Twilight
Nautical Twilight
Astronomical Twilight
Moon
Length of Visible Light
Length of Day
Tomorrow will be .
, % of the Moon is Illuminated

Today's Extremes

State Highs State Lows

Community

WunderPhotos

Upload Photos

1,802,342 photos uploaded!

WunderBlogs® & News

Nearby

Air Quality

  Air Quality AQ Index Pollutant
Not available.

Snow Depth

Station Depth Elevation

Earthquake Activity

City Distance Mag. Time & Date
Minimum magnitude displayed is 2.5.

Coastal Water Temperatures

Place Temperature

Nearby Weather Stations